sensor_id;sensor_type;location;lat;lon;timestamp;P1;durP1;ratioP1;P2;durP2;ratioP2
28627;SDS011;15815;46.760;19.604;2024-03-25T00:00:26;6.13;;;3.22;;
28627;SDS011;15815;46.760;19.604;2024-03-25T00:02:52;6.97;;;4.35;;
28627;SDS011;15815;46.760;19.604;2024-03-25T00:05:17;7.15;;;3.60;;
28627;SDS011;15815;46.760;19.604;2024-03-25T00:08:01;6.63;;;3.42;;
28627;SDS011;15815;46.760;19.604;2024-03-25T00:10:29;5.22;;;2.92;;
28627;SDS011;15815;46.760;19.604;2024-03-25T00:12:55;2.72;;;2.30;;
28627;SDS011;15815;46.760;19.604;2024-03-25T00:18:09;3.60;;;2.05;;
28627;SDS011;15815;46.760;19.604;2024-03-25T00:20:50;5.55;;;2.85;;
28627;SDS011;15815;46.760;19.604;2024-03-25T00:23:15;3.08;;;2.28;;
28627;SDS011;15815;46.760;19.604;2024-03-25T00:25:40;3.58;;;2.58;;
28627;SDS011;15815;46.760;19.604;2024-03-25T00:28:06;4.78;;;2.67;;
28627;SDS011;15815;46.760;19.604;2024-03-25T00:30:31;4.22;;;2.80;;
28627;SDS011;15815;46.760;19.604;2024-03-25T00:32:57;5.18;;;3.00;;
28627;SDS011;15815;46.760;19.604;2024-03-25T00:35:22;4.32;;;2.75;;
28627;SDS011;15815;46.760;19.604;2024-03-25T00:37:48;4.97;;;3.28;;
28627;SDS011;15815;46.760;19.604;2024-03-25T00:40:13;6.05;;;3.10;;
28627;SDS011;15815;46.760;19.604;2024-03-25T00:42:39;5.25;;;2.83;;
28627;SDS011;15815;46.760;19.604;2024-03-25T00:45:04;4.15;;;2.63;;
28627;SDS011;15815;46.760;19.604;2024-03-25T00:47:30;5.80;;;3.40;;
28627;SDS011;15815;46.760;19.604;2024-03-25T00:49:56;4.78;;;2.92;;
28627;SDS011;15815;46.760;19.604;2024-03-25T00:52:21;5.80;;;3.53;;
28627;SDS011;15815;46.760;19.604;2024-03-25T00:54:47;3.78;;;3.25;;
28627;SDS011;15815;46.760;19.604;2024-03-25T00:57:12;5.38;;;3.10;;
28627;SDS011;15815;46.760;19.604;2024-03-25T00:59:38;4.80;;;3.08;;
28627;SDS011;15815;46.760;19.604;2024-03-25T01:02:03;5.78;;;3.03;;
28627;SDS011;15815;46.760;19.604;2024-03-25T01:04:29;4.75;;;2.75;;
28627;SDS011;15815;46.760;19.604;2024-03-25T01:06:54;3.60;;;2.45;;
28627;SDS011;15815;46.760;19.604;2024-03-25T01:09:20;3.88;;;2.25;;
28627;SDS011;15815;46.760;19.604;2024-03-25T01:11:45;5.22;;;2.28;;
28627;SDS011;15815;46.760;19.604;2024-03-25T01:14:11;4.45;;;2.58;;
28627;SDS011;15815;46.760;19.604;2024-03-25T01:16:36;3.72;;;2.47;;
28627;SDS011;15815;46.760;19.604;2024-03-25T01:19:02;4.75;;;2.45;;
28627;SDS011;15815;46.760;19.604;2024-03-25T01:21:29;2.92;;;2.10;;
28627;SDS011;15815;46.760;19.604;2024-03-25T01:23:57;2.75;;;2.38;;
28627;SDS011;15815;46.760;19.604;2024-03-25T01:26:23;2.75;;;1.85;;
28627;SDS011;15815;46.760;19.604;2024-03-25T01:31:19;2.35;;;2.00;;
28627;SDS011;15815;46.760;19.604;2024-03-25T01:33:44;3.10;;;2.63;;
28627;SDS011;15815;46.760;19.604;2024-03-25T01:38:39;3.28;;;2.15;;
28627;SDS011;15815;46.760;19.604;2024-03-25T01:41:11;2.50;;;2.30;;
28627;SDS011;15815;46.760;19.604;2024-03-25T01:46:26;3.67;;;2.45;;
28627;SDS011;15815;46.760;19.604;2024-03-25T01:48:55;5.60;;;2.78;;
28627;SDS011;15815;46.760;19.604;2024-03-25T01:51:32;2.33;;;2.08;;
28627;SDS011;15815;46.760;19.604;2024-03-25T01:53:59;3.22;;;2.22;;
28627;SDS011;15815;46.760;19.604;2024-03-25T01:56:25;4.07;;;2.35;;
28627;SDS011;15815;46.760;19.604;2024-03-25T01:58:51;2.45;;;2.08;;
28627;SDS011;15815;46.760;19.604;2024-03-25T02:01:17;5.30;;;2.03;;
28627;SDS011;15815;46.760;19.604;2024-03-25T02:03:44;3.10;;;2.63;;
28627;SDS011;15815;46.760;19.604;2024-03-25T02:06:12;2.40;;;2.20;;
28627;SDS011;15815;46.760;19.604;2024-03-25T02:08:49;2.92;;;2.53;;
28627;SDS011;15815;46.760;19.604;2024-03-25T02:11:16;3.70;;;2.30;;
28627;SDS011;15815;46.760;19.604;2024-03-25T02:13:52;4.82;;;3.17;;
28627;SDS011;15815;46.760;19.604;2024-03-25T02:16:17;4.88;;;3.10;;
28627;SDS011;15815;46.760;19.604;2024-03-25T02:18:43;5.53;;;2.97;;
28627;SDS011;15815;46.760;19.604;2024-03-25T02:21:10;4.22;;;2.88;;
28627;SDS011;15815;46.760;19.604;2024-03-25T02:23:36;5.35;;;3.38;;
28627;SDS011;15815;46.760;19.604;2024-03-25T02:26:06;3.47;;;3.07;;
28627;SDS011;15815;46.760;19.604;2024-03-25T02:28:35;6.70;;;3.28;;
28627;SDS011;15815;46.760;19.604;2024-03-25T02:31:01;6.43;;;3.17;;
28627;SDS011;15815;46.760;19.604;2024-03-25T02:33:26;3.92;;;2.88;;
28627;SDS011;15815;46.760;19.604;2024-03-25T02:35:52;6.40;;;3.00;;
28627;SDS011;15815;46.760;19.604;2024-03-25T02:38:17;6.40;;;3.47;;
28627;SDS011;15815;46.760;19.604;2024-03-25T02:40:43;5.47;;;4.03;;
28627;SDS011;15815;46.760;19.604;2024-03-25T02:43:09;6.63;;;3.80;;
28627;SDS011;15815;46.760;19.604;2024-03-25T02:45:36;8.27;;;4.20;;
28627;SDS011;15815;46.760;19.604;2024-03-25T02:48:01;13.98;;;5.40;;
28627;SDS011;15815;46.760;19.604;2024-03-25T02:50:32;13.45;;;6.45;;
28627;SDS011;15815;46.760;19.604;2024-03-25T02:52:57;14.07;;;6.10;;
28627;SDS011;15815;46.760;19.604;2024-03-25T02:55:26;10.98;;;5.68;;
28627;SDS011;15815;46.760;19.604;2024-03-25T02:57:52;12.32;;;5.03;;
28627;SDS011;15815;46.760;19.604;2024-03-25T03:00:27;9.15;;;4.25;;
28627;SDS011;15815;46.760;19.604;2024-03-25T03:02:53;6.15;;;3.75;;
28627;SDS011;15815;46.760;19.604;2024-03-25T03:05:20;4.13;;;2.92;;
28627;SDS011;15815;46.760;19.604;2024-03-25T03:07:46;5.65;;;3.08;;
28627;SDS011;15815;46.760;19.604;2024-03-25T03:10:11;8.00;;;3.13;;
28627;SDS011;15815;46.760;19.604;2024-03-25T03:12:37;6.28;;;3.65;;
28627;SDS011;15815;46.760;19.604;2024-03-25T03:15:14;5.78;;;2.80;;
28627;SDS011;15815;46.760;19.604;2024-03-25T03:17:40;5.53;;;3.47;;
28627;SDS011;15815;46.760;19.604;2024-03-25T03:22:36;7.63;;;3.65;;
28627;SDS011;15815;46.760;19.604;2024-03-25T03:27:31;6.80;;;3.05;;
28627;SDS011;15815;46.760;19.604;2024-03-25T03:29:58;4.03;;;2.67;;
28627;SDS011;15815;46.760;19.604;2024-03-25T03:32:23;3.83;;;2.28;;
28627;SDS011;15815;46.760;19.604;2024-03-25T03:34:50;5.95;;;3.08;;
28627;SDS011;15815;46.760;19.604;2024-03-25T03:37:16;3.80;;;2.72;;
28627;SDS011;15815;46.760;19.604;2024-03-25T03:39:41;4.70;;;2.70;;
28627;SDS011;15815;46.760;19.604;2024-03-25T03:42:07;6.72;;;3.15;;
28627;SDS011;15815;46.760;19.604;2024-03-25T03:44:32;4.72;;;2.45;;
28627;SDS011;15815;46.760;19.604;2024-03-25T03:46:58;4.45;;;2.80;;
28627;SDS011;15815;46.760;19.604;2024-03-25T03:49:23;5.32;;;2.92;;
28627;SDS011;15815;46.760;19.604;2024-03-25T03:51:49;6.95;;;3.50;;
28627;SDS011;15815;46.760;19.604;2024-03-25T03:54:14;5.50;;;3.45;;
28627;SDS011;15815;46.760;19.604;2024-03-25T03:56:46;13.30;;;4.75;;
28627;SDS011;15815;46.760;19.604;2024-03-25T03:59:12;15.45;;;5.13;;
28627;SDS011;15815;46.760;19.604;2024-03-25T04:01:37;13.65;;;5.13;;
28627;SDS011;15815;46.760;19.604;2024-03-25T04:04:03;10.63;;;4.15;;
28627;SDS011;15815;46.760;19.604;2024-03-25T04:06:28;5.28;;;3.45;;
28627;SDS011;15815;46.760;19.604;2024-03-25T04:08:54;4.65;;;3.38;;
28627;SDS011;15815;46.760;19.604;2024-03-25T04:11:37;5.20;;;3.42;;
28627;SDS011;15815;46.760;19.604;2024-03-25T04:14:02;4.35;;;2.83;;
28627;SDS011;15815;46.760;19.604;2024-03-25T04:16:28;5.00;;;3.10;;
28627;SDS011;15815;46.760;19.604;2024-03-25T04:18:54;4.45;;;2.78;;
28627;SDS011;15815;46.760;19.604;2024-03-25T04:21:19;6.45;;;2.95;;
28627;SDS011;15815;46.760;19.604;2024-03-25T04:23:45;6.43;;;3.35;;
28627;SDS011;15815;46.760;19.604;2024-03-25T04:28:39;6.20;;;3.35;;
28627;SDS011;15815;46.760;19.604;2024-03-25T04:31:04;3.63;;;2.53;;
28627;SDS011;15815;46.760;19.604;2024-03-25T04:33:30;7.07;;;2.83;;
28627;SDS011;15815;46.760;19.604;2024-03-25T04:35:55;3.97;;;2.70;;
28627;SDS011;15815;46.760;19.604;2024-03-25T04:38:24;4.80;;;2.80;;
28627;SDS011;15815;46.760;19.604;2024-03-25T04:40:50;5.25;;;2.75;;
28627;SDS011;15815;46.760;19.604;2024-03-25T04:43:15;4.50;;;3.05;;
28627;SDS011;15815;46.760;19.604;2024-03-25T04:45:41;4.93;;;2.58;;
28627;SDS011;15815;46.760;19.604;2024-03-25T04:48:07;12.25;;;5.70;;
28627;SDS011;15815;46.760;19.604;2024-03-25T04:50:36;14.50;;;7.88;;
28627;SDS011;15815;46.760;19.604;2024-03-25T04:53:02;11.40;;;5.25;;
28627;SDS011;15815;46.760;19.604;2024-03-25T04:55:32;16.55;;;6.25;;
28627;SDS011;15815;46.760;19.604;2024-03-25T04:57:57;24.55;;;8.98;;
28627;SDS011;15815;46.760;19.604;2024-03-25T05:00:23;14.77;;;5.82;;
28627;SDS011;15815;46.760;19.604;2024-03-25T05:05:57;6.60;;;3.17;;
28627;SDS011;15815;46.760;19.604;2024-03-25T05:08:23;5.68;;;3.40;;
28627;SDS011;15815;46.760;19.604;2024-03-25T05:10:48;5.82;;;3.60;;
28627;SDS011;15815;46.760;19.604;2024-03-25T05:13:14;5.50;;;3.00;;
28627;SDS011;15815;46.760;19.604;2024-03-25T05:15:39;5.30;;;3.15;;
28627;SDS011;15815;46.760;19.604;2024-03-25T05:18:05;4.13;;;3.00;;
28627;SDS011;15815;46.760;19.604;2024-03-25T05:20:31;4.68;;;2.97;;
28627;SDS011;15815;46.760;19.604;2024-03-25T05:22:56;4.93;;;3.13;;
28627;SDS011;15815;46.760;19.604;2024-03-25T05:25:22;6.05;;;3.30;;
28627;SDS011;15815;46.760;19.604;2024-03-25T05:27:51;3.22;;;2.47;;
28627;SDS011;15815;46.760;19.604;2024-03-25T05:30:17;5.50;;;3.00;;
28627;SDS011;15815;46.760;19.604;2024-03-25T05:32:42;2.45;;;2.05;;
28627;SDS011;15815;46.760;19.604;2024-03-25T05:35:08;2.28;;;2.05;;
28627;SDS011;15815;46.760;19.604;2024-03-25T05:37:34;4.32;;;2.17;;
28627;SDS011;15815;46.760;19.604;2024-03-25T05:40:00;3.28;;;2.10;;
28627;SDS011;15815;46.760;19.604;2024-03-25T05:42:26;2.95;;;2.05;;
28627;SDS011;15815;46.760;19.604;2024-03-25T05:44:52;2.72;;;2.25;;
28627;SDS011;15815;46.760;19.604;2024-03-25T05:47:17;3.60;;;2.15;;
28627;SDS011;15815;46.760;19.604;2024-03-25T05:49:47;6.45;;;2.50;;
28627;SDS011;15815;46.760;19.604;2024-03-25T05:52:13;3.25;;;2.10;;
28627;SDS011;15815;46.760;19.604;2024-03-25T05:57:08;4.07;;;2.45;;
28627;SDS011;15815;46.760;19.604;2024-03-25T05:59:35;8.48;;;4.50;;
28627;SDS011;15815;46.760;19.604;2024-03-25T06:02:00;6.38;;;4.30;;
28627;SDS011;15815;46.760;19.604;2024-03-25T06:04:26;6.65;;;4.60;;
28627;SDS011;15815;46.760;19.604;2024-03-25T06:06:51;19.95;;;9.02;;
28627;SDS011;15815;46.760;19.604;2024-03-25T06:09:17;11.15;;;4.93;;
28627;SDS011;15815;46.760;19.604;2024-03-25T06:11:44;5.80;;;2.78;;
28627;SDS011;15815;46.760;19.604;2024-03-25T06:14:10;6.13;;;3.45;;
28627;SDS011;15815;46.760;19.604;2024-03-25T06:16:35;8.80;;;3.40;;
28627;SDS011;15815;46.760;19.604;2024-03-25T06:19:01;4.32;;;2.63;;
28627;SDS011;15815;46.760;19.604;2024-03-25T06:21:26;6.03;;;2.47;;
28627;SDS011;15815;46.760;19.604;2024-03-25T06:26:26;6.72;;;2.90;;
28627;SDS011;15815;46.760;19.604;2024-03-25T06:29:03;6.93;;;3.38;;
28627;SDS011;15815;46.760;19.604;2024-03-25T06:31:32;5.72;;;3.58;;
28627;SDS011;15815;46.760;19.604;2024-03-25T06:34:06;7.70;;;3.42;;
28627;SDS011;15815;46.760;19.604;2024-03-25T06:36:31;5.25;;;3.45;;
28627;SDS011;15815;46.760;19.604;2024-03-25T06:39:10;6.68;;;3.97;;
28627;SDS011;15815;46.760;19.604;2024-03-25T06:41:36;7.43;;;3.30;;
28627;SDS011;15815;46.760;19.604;2024-03-25T06:44:02;7.50;;;3.80;;
28627;SDS011;15815;46.760;19.604;2024-03-25T06:46:27;3.67;;;2.90;;
28627;SDS011;15815;46.760;19.604;2024-03-25T06:48:53;6.63;;;3.40;;
28627;SDS011;15815;46.760;19.604;2024-03-25T06:51:21;8.82;;;3.53;;
28627;SDS011;15815;46.760;19.604;2024-03-25T06:53:47;4.53;;;3.33;;
28627;SDS011;15815;46.760;19.604;2024-03-25T06:56:12;3.33;;;2.72;;
28627;SDS011;15815;46.760;19.604;2024-03-25T06:58:48;5.80;;;2.53;;
28627;SDS011;15815;46.760;19.604;2024-03-25T07:01:13;5.85;;;2.80;;
28627;SDS011;15815;46.760;19.604;2024-03-25T07:03:39;2.85;;;2.20;;
28627;SDS011;15815;46.760;19.604;2024-03-25T07:06:18;3.63;;;2.60;;
28627;SDS011;15815;46.760;19.604;2024-03-25T07:08:44;3.03;;;2.72;;
28627;SDS011;15815;46.760;19.604;2024-03-25T07:11:09;3.70;;;3.17;;
28627;SDS011;15815;46.760;19.604;2024-03-25T07:13:35;2.97;;;2.50;;
28627;SDS011;15815;46.760;19.604;2024-03-25T07:16:00;3.45;;;3.15;;
28627;SDS011;15815;46.760;19.604;2024-03-25T07:18:25;3.15;;;2.85;;
28627;SDS011;15815;46.760;19.604;2024-03-25T07:20:51;3.67;;;2.70;;
28627;SDS011;15815;46.760;19.604;2024-03-25T07:23:16;6.45;;;2.45;;
28627;SDS011;15815;46.760;19.604;2024-03-25T07:25:42;2.22;;;2.03;;
28627;SDS011;15815;46.760;19.604;2024-03-25T07:28:07;1.98;;;1.50;;
28627;SDS011;15815;46.760;19.604;2024-03-25T07:30:33;2.08;;;1.58;;
28627;SDS011;15815;46.760;19.604;2024-03-25T07:33:02;1.98;;;1.70;;
28627;SDS011;15815;46.760;19.604;2024-03-25T07:35:28;2.55;;;1.38;;
28627;SDS011;15815;46.760;19.604;2024-03-25T07:37:54;1.55;;;1.30;;
28627;SDS011;15815;46.760;19.604;2024-03-25T07:40:25;1.30;;;1.20;;
28627;SDS011;15815;46.760;19.604;2024-03-25T07:42:51;1.30;;;1.20;;
28627;SDS011;15815;46.760;19.604;2024-03-25T07:45:16;1.77;;;1.20;;
28627;SDS011;15815;46.760;19.604;2024-03-25T07:50:15;1.45;;;1.23;;
28627;SDS011;15815;46.760;19.604;2024-03-25T07:52:41;2.00;;;1.10;;
28627;SDS011;15815;46.760;19.604;2024-03-25T07:57:55;2.80;;;1.80;;
28627;SDS011;15815;46.760;19.604;2024-03-25T08:00:21;2.90;;;1.92;;
28627;SDS011;15815;46.760;19.604;2024-03-25T08:02:47;2.42;;;1.42;;
28627;SDS011;15815;46.760;19.604;2024-03-25T08:05:21;2.35;;;1.60;;
28627;SDS011;15815;46.760;19.604;2024-03-25T08:07:46;1.27;;;1.17;;
28627;SDS011;15815;46.760;19.604;2024-03-25T08:10:11;1.65;;;1.10;;
28627;SDS011;15815;46.760;19.604;2024-03-25T08:12:37;2.40;;;1.20;;
28627;SDS011;15815;46.760;19.604;2024-03-25T08:15:03;4.60;;;1.40;;
28627;SDS011;15815;46.760;19.604;2024-03-25T08:17:28;13.38;;;3.95;;
28627;SDS011;15815;46.760;19.604;2024-03-25T08:19:54;10.40;;;5.70;;
28627;SDS011;15815;46.760;19.604;2024-03-25T08:22:21;1.67;;;1.58;;
28627;SDS011;15815;46.760;19.604;2024-03-25T08:24:46;3.33;;;2.20;;
28627;SDS011;15815;46.760;19.604;2024-03-25T08:27:13;2.10;;;1.90;;
28627;SDS011;15815;46.760;19.604;2024-03-25T08:29:38;1.67;;;1.50;;
28627;SDS011;15815;46.760;19.604;2024-03-25T08:32:04;7.20;;;1.83;;
28627;SDS011;15815;46.760;19.604;2024-03-25T08:34:30;2.28;;;0.93;;
28627;SDS011;15815;46.760;19.604;2024-03-25T08:36:56;1.23;;;0.85;;
28627;SDS011;15815;46.760;19.604;2024-03-25T08:39:21;1.17;;;1.00;;
28627;SDS011;15815;46.760;19.604;2024-03-25T08:41:47;2.15;;;0.90;;
28627;SDS011;15815;46.760;19.604;2024-03-25T08:44:12;1.30;;;1.00;;
28627;SDS011;15815;46.760;19.604;2024-03-25T08:46:38;6.15;;;1.45;;
28627;SDS011;15815;46.760;19.604;2024-03-25T08:49:03;1.42;;;1.33;;
28627;SDS011;15815;46.760;19.604;2024-03-25T08:51:29;2.10;;;1.20;;
28627;SDS011;15815;46.760;19.604;2024-03-25T08:53:54;1.65;;;1.13;;
28627;SDS011;15815;46.760;19.604;2024-03-25T08:56:20;1.52;;;1.02;;
28627;SDS011;15815;46.760;19.604;2024-03-25T08:58:52;1.83;;;0.90;;
28627;SDS011;15815;46.760;19.604;2024-03-25T09:01:18;1.55;;;1.00;;
28627;SDS011;15815;46.760;19.604;2024-03-25T09:04:04;2.70;;;0.98;;
28627;SDS011;15815;46.760;19.604;2024-03-25T09:06:29;6.75;;;0.90;;
28627;SDS011;15815;46.760;19.604;2024-03-25T09:08:55;2.03;;;0.80;;
28627;SDS011;15815;46.760;19.604;2024-03-25T09:11:21;4.05;;;1.38;;
28627;SDS011;15815;46.760;19.604;2024-03-25T09:13:46;7.35;;;1.60;;
28627;SDS011;15815;46.760;19.604;2024-03-25T09:16:12;3.55;;;1.23;;
28627;SDS011;15815;46.760;19.604;2024-03-25T09:18:38;1.45;;;0.93;;
28627;SDS011;15815;46.760;19.604;2024-03-25T09:21:04;3.90;;;2.38;;
28627;SDS011;15815;46.760;19.604;2024-03-25T09:23:29;1.55;;;0.80;;
28627;SDS011;15815;46.760;19.604;2024-03-25T09:26:02;1.80;;;0.90;;
28627;SDS011;15815;46.760;19.604;2024-03-25T09:28:28;3.92;;;1.75;;
28627;SDS011;15815;46.760;19.604;2024-03-25T09:30:53;2.72;;;1.13;;
28627;SDS011;15815;46.760;19.604;2024-03-25T09:33:20;7.55;;;2.22;;
28627;SDS011;15815;46.760;19.604;2024-03-25T09:35:45;0.77;;;0.60;;
28627;SDS011;15815;46.760;19.604;2024-03-25T09:38:10;0.77;;;0.47;;
28627;SDS011;15815;46.760;19.604;2024-03-25T09:40:42;2.60;;;0.82;;
28627;SDS011;15815;46.760;19.604;2024-03-25T09:43:21;1.05;;;0.80;;
28627;SDS011;15815;46.760;19.604;2024-03-25T09:45:50;1.80;;;1.30;;
28627;SDS011;15815;46.760;19.604;2024-03-25T09:48:29;3.75;;;0.60;;
28627;SDS011;15815;46.760;19.604;2024-03-25T09:50:55;1.83;;;0.60;;
28627;SDS011;15815;46.760;19.604;2024-03-25T09:55:59;0.93;;;0.70;;
28627;SDS011;15815;46.760;19.604;2024-03-25T09:58:25;0.90;;;0.50;;
28627;SDS011;15815;46.760;19.604;2024-03-25T10:01:02;0.70;;;0.70;;
28627;SDS011;15815;46.760;19.604;2024-03-25T10:03:28;3.50;;;1.98;;
28627;SDS011;15815;46.760;19.604;2024-03-25T10:05:53;1.35;;;0.80;;
28627;SDS011;15815;46.760;19.604;2024-03-25T10:08:24;3.30;;;1.15;;
28627;SDS011;15815;46.760;19.604;2024-03-25T10:10:49;0.57;;;0.57;;
28627;SDS011;15815;46.760;19.604;2024-03-25T10:13:15;1.05;;;0.57;;
28627;SDS011;15815;46.760;19.604;2024-03-25T10:15:47;0.52;;;0.50;;
28627;SDS011;15815;46.760;19.604;2024-03-25T10:18:13;4.03;;;1.05;;
28627;SDS011;15815;46.760;19.604;2024-03-25T10:20:38;7.55;;;2.15;;
28627;SDS011;15815;46.760;19.604;2024-03-25T10:23:25;1.48;;;1.00;;
28627;SDS011;15815;46.760;19.604;2024-03-25T10:25:54;1.85;;;1.02;;
28627;SDS011;15815;46.760;19.604;2024-03-25T10:28:20;1.20;;;0.55;;
28627;SDS011;15815;46.760;19.604;2024-03-25T10:30:48;1.60;;;1.00;;
28627;SDS011;15815;46.760;19.604;2024-03-25T10:33:14;1.65;;;1.00;;
28627;SDS011;15815;46.760;19.604;2024-03-25T10:35:40;0.80;;;0.60;;
28627;SDS011;15815;46.760;19.604;2024-03-25T10:38:06;0.70;;;0.50;;
28627;SDS011;15815;46.760;19.604;2024-03-25T10:40:35;6.53;;;1.10;;
28627;SDS011;15815;46.760;19.604;2024-03-25T10:43:08;4.03;;;1.00;;
28627;SDS011;15815;46.760;19.604;2024-03-25T10:45:37;0.95;;;0.90;;
28627;SDS011;15815;46.760;19.604;2024-03-25T10:51:04;0.63;;;0.50;;
28627;SDS011;15815;46.760;19.604;2024-03-25T10:53:31;0.68;;;0.50;;
28627;SDS011;15815;46.760;19.604;2024-03-25T10:56:02;0.95;;;0.60;;
28627;SDS011;15815;46.760;19.604;2024-03-25T10:58:29;1.20;;;0.70;;
28627;SDS011;15815;46.760;19.604;2024-03-25T11:00:55;1.95;;;0.70;;
28627;SDS011;15815;46.760;19.604;2024-03-25T11:03:28;1.80;;;0.95;;
28627;SDS011;15815;46.760;19.604;2024-03-25T11:05:54;2.67;;;1.20;;
28627;SDS011;15815;46.760;19.604;2024-03-25T11:08:20;1.33;;;0.65;;
28627;SDS011;15815;46.760;19.604;2024-03-25T11:10:58;1.13;;;0.88;;
28627;SDS011;15815;46.760;19.604;2024-03-25T11:13:26;4.03;;;0.93;;
28627;SDS011;15815;46.760;19.604;2024-03-25T11:15:52;1.80;;;0.98;;
28627;SDS011;15815;46.760;19.604;2024-03-25T11:18:18;1.40;;;0.65;;
28627;SDS011;15815;46.760;19.604;2024-03-25T11:20:47;1.33;;;0.88;;
28627;SDS011;15815;46.760;19.604;2024-03-25T11:23:13;1.58;;;1.00;;
28627;SDS011;15815;46.760;19.604;2024-03-25T11:25:39;1.20;;;0.75;;
28627;SDS011;15815;46.760;19.604;2024-03-25T11:28:06;3.60;;;1.38;;
28627;SDS011;15815;46.760;19.604;2024-03-25T11:30:33;1.42;;;1.00;;
28627;SDS011;15815;46.760;19.604;2024-03-25T11:33:01;1.00;;;0.70;;
28627;SDS011;15815;46.760;19.604;2024-03-25T11:35:27;3.78;;;1.40;;
28627;SDS011;15815;46.760;19.604;2024-03-25T11:40:21;1.60;;;1.08;;
28627;SDS011;15815;46.760;19.604;2024-03-25T11:42:47;2.47;;;0.70;;
28627;SDS011;15815;46.760;19.604;2024-03-25T11:48:06;4.30;;;1.42;;
28627;SDS011;15815;46.760;19.604;2024-03-25T11:50:34;4.20;;;1.67;;
28627;SDS011;15815;46.760;19.604;2024-03-25T11:53:00;4.97;;;2.35;;
28627;SDS011;15815;46.760;19.604;2024-03-25T11:55:30;2.50;;;1.38;;
28627;SDS011;15815;46.760;19.604;2024-03-25T11:57:59;3.10;;;2.22;;
28627;SDS011;15815;46.760;19.604;2024-03-25T12:00:25;1.98;;;1.60;;
28627;SDS011;15815;46.760;19.604;2024-03-25T12:02:51;2.42;;;1.30;;
28627;SDS011;15815;46.760;19.604;2024-03-25T12:07:47;2.35;;;1.27;;
28627;SDS011;15815;46.760;19.604;2024-03-25T12:10:12;7.00;;;1.30;;
28627;SDS011;15815;46.760;19.604;2024-03-25T12:12:46;3.42;;;1.20;;
28627;SDS011;15815;46.760;19.604;2024-03-25T12:15:12;1.45;;;1.27;;
28627;SDS011;15815;46.760;19.604;2024-03-25T12:17:38;4.13;;;2.22;;
28627;SDS011;15815;46.760;19.604;2024-03-25T12:20:20;4.28;;;2.15;;
28627;SDS011;15815;46.760;19.604;2024-03-25T12:22:45;1.95;;;1.40;;
28627;SDS011;15815;46.760;19.604;2024-03-25T12:25:11;1.23;;;1.10;;
28627;SDS011;15815;46.760;19.604;2024-03-25T12:27:37;2.95;;;1.10;;
28627;SDS011;15815;46.760;19.604;2024-03-25T12:30:07;1.98;;;1.20;;
28627;SDS011;15815;46.760;19.604;2024-03-25T12:35:10;1.70;;;1.00;;
28627;SDS011;15815;46.760;19.604;2024-03-25T12:37:44;1.17;;;1.08;;
28627;SDS011;15815;46.760;19.604;2024-03-25T12:40:11;1.75;;;0.80;;
28627;SDS011;15815;46.760;19.604;2024-03-25T12:42:38;1.50;;;1.00;;
28627;SDS011;15815;46.760;19.604;2024-03-25T12:45:04;6.93;;;2.60;;
28627;SDS011;15815;46.760;19.604;2024-03-25T12:47:30;3.17;;;1.63;;
28627;SDS011;15815;46.760;19.604;2024-03-25T12:49:58;2.97;;;1.38;;
28627;SDS011;15815;46.760;19.604;2024-03-25T12:52:24;1.88;;;1.30;;
28627;SDS011;15815;46.760;19.604;2024-03-25T12:54:50;2.50;;;1.23;;
28627;SDS011;15815;46.760;19.604;2024-03-25T12:57:15;2.42;;;1.15;;
28627;SDS011;15815;46.760;19.604;2024-03-25T12:59:41;2.58;;;1.10;;
28627;SDS011;15815;46.760;19.604;2024-03-25T13:02:08;3.58;;;1.05;;
28627;SDS011;15815;46.760;19.604;2024-03-25T13:04:35;2.03;;;0.98;;
28627;SDS011;15815;46.760;19.604;2024-03-25T13:07:02;3.75;;;1.25;;
28627;SDS011;15815;46.760;19.604;2024-03-25T13:09:31;2.22;;;0.80;;
28627;SDS011;15815;46.760;19.604;2024-03-25T13:11:57;1.05;;;0.70;;
28627;SDS011;15815;46.760;19.604;2024-03-25T13:14:29;1.27;;;0.90;;
28627;SDS011;15815;46.760;19.604;2024-03-25T13:16:55;3.33;;;0.93;;
28627;SDS011;15815;46.760;19.604;2024-03-25T13:19:37;3.30;;;1.48;;
28627;SDS011;15815;46.760;19.604;2024-03-25T13:22:03;2.13;;;1.05;;
28627;SDS011;15815;46.760;19.604;2024-03-25T13:24:28;0.95;;;0.90;;
28627;SDS011;15815;46.760;19.604;2024-03-25T13:26:58;1.67;;;1.00;;
28627;SDS011;15815;46.760;19.604;2024-03-25T13:29:23;1.85;;;1.00;;
28627;SDS011;15815;46.760;19.604;2024-03-25T13:31:50;1.85;;;1.15;;
28627;SDS011;15815;46.760;19.604;2024-03-25T13:34:16;2.53;;;1.30;;
28627;SDS011;15815;46.760;19.604;2024-03-25T13:36:41;1.83;;;1.30;;
28627;SDS011;15815;46.760;19.604;2024-03-25T13:39:07;3.92;;;1.50;;
28627;SDS011;15815;46.760;19.604;2024-03-25T13:41:33;2.08;;;1.52;;
28627;SDS011;15815;46.760;19.604;2024-03-25T13:43:59;3.47;;;2.10;;
28627;SDS011;15815;46.760;19.604;2024-03-25T13:46:24;2.70;;;1.00;;
28627;SDS011;15815;46.760;19.604;2024-03-25T13:48:50;3.75;;;1.50;;
28627;SDS011;15815;46.760;19.604;2024-03-25T13:51:15;1.13;;;0.82;;
28627;SDS011;15815;46.760;19.604;2024-03-25T13:53:44;1.67;;;1.10;;
28627;SDS011;15815;46.760;19.604;2024-03-25T13:56:10;3.15;;;1.38;;
28627;SDS011;15815;46.760;19.604;2024-03-25T13:58:35;2.78;;;0.50;;
28627;SDS011;15815;46.760;19.604;2024-03-25T14:01:03;1.85;;;1.20;;
28627;SDS011;15815;46.760;19.604;2024-03-25T14:05:56;2.72;;;0.90;;
28627;SDS011;15815;46.760;19.604;2024-03-25T14:08:22;7.55;;;1.10;;
28627;SDS011;15815;46.760;19.604;2024-03-25T14:10:57;1.27;;;0.80;;
28627;SDS011;15815;46.760;19.604;2024-03-25T14:13:24;1.63;;;1.05;;
28627;SDS011;15815;46.760;19.604;2024-03-25T14:15:56;2.90;;;1.00;;
28627;SDS011;15815;46.760;19.604;2024-03-25T14:18:21;2.20;;;0.82;;
28627;SDS011;15815;46.760;19.604;2024-03-25T14:20:47;0.50;;;0.50;;
28627;SDS011;15815;46.760;19.604;2024-03-25T14:25:44;1.55;;;1.20;;
28627;SDS011;15815;46.760;19.604;2024-03-25T14:28:10;1.08;;;1.00;;
28627;SDS011;15815;46.760;19.604;2024-03-25T14:30:36;1.50;;;0.88;;
28627;SDS011;15815;46.760;19.604;2024-03-25T14:33:02;3.95;;;1.23;;
28627;SDS011;15815;46.760;19.604;2024-03-25T14:35:28;1.13;;;0.73;;
28627;SDS011;15815;46.760;19.604;2024-03-25T14:37:54;2.10;;;1.10;;
28627;SDS011;15815;46.760;19.604;2024-03-25T14:40:19;1.13;;;0.80;;
28627;SDS011;15815;46.760;19.604;2024-03-25T14:45:30;2.70;;;1.00;;
28627;SDS011;15815;46.760;19.604;2024-03-25T14:47:55;0.70;;;0.57;;
28627;SDS011;15815;46.760;19.604;2024-03-25T14:50:28;2.45;;;1.23;;
28627;SDS011;15815;46.760;19.604;2024-03-25T14:52:54;3.97;;;1.58;;
28627;SDS011;15815;46.760;19.604;2024-03-25T14:55:19;3.75;;;1.20;;
28627;SDS011;15815;46.760;19.604;2024-03-25T15:00:24;1.23;;;0.82;;
28627;SDS011;15815;46.760;19.604;2024-03-25T15:02:50;2.42;;;1.63;;
28627;SDS011;15815;46.760;19.604;2024-03-25T15:05:17;0.90;;;0.65;;
28627;SDS011;15815;46.760;19.604;2024-03-25T15:07:43;1.17;;;0.65;;
28627;SDS011;15815;46.760;19.604;2024-03-25T15:10:08;1.35;;;0.88;;
28627;SDS011;15815;46.760;19.604;2024-03-25T15:12:34;2.67;;;1.00;;
28627;SDS011;15815;46.760;19.604;2024-03-25T15:15:03;1.05;;;0.90;;
28627;SDS011;15815;46.760;19.604;2024-03-25T15:17:30;1.40;;;0.85;;
28627;SDS011;15815;46.760;19.604;2024-03-25T15:22:32;0.85;;;0.80;;
28627;SDS011;15815;46.760;19.604;2024-03-25T15:24:58;0.82;;;0.73;;
28627;SDS011;15815;46.760;19.604;2024-03-25T15:30:09;0.70;;;0.70;;
28627;SDS011;15815;46.760;19.604;2024-03-25T15:32:35;1.17;;;0.70;;
28627;SDS011;15815;46.760;19.604;2024-03-25T15:35:00;3.03;;;1.17;;